sensor_id;sensor_type;location;lat;lon;timestamp;temperature;humidity
33007;DHT22;19361;51.598;7.650;2022-07-21T00:00:53;25.50;55.80
33007;DHT22;19361;51.598;7.650;2022-07-21T00:05:54;25.50;56.00
33007;DHT22;19361;51.598;7.650;2022-07-21T00:10:55;25.50;56.20
33007;DHT22;19361;51.598;7.650;2022-07-21T00:15:55;25.40;56.10
33007;DHT22;19361;51.598;7.650;2022-07-21T00:20:58;25.30;56.00
33007;DHT22;19361;51.598;7.650;2022-07-21T00:25:59;25.30;56.30
33007;DHT22;19361;51.598;7.650;2022-07-21T00:30:59;25.30;56.50
33007;DHT22;19361;51.598;7.650;2022-07-21T00:36:00;25.30;56.70
33007;DHT22;19361;51.598;7.650;2022-07-21T00:41:01;25.20;56.70
33007;DHT22;19361;51.598;7.650;2022-07-21T00:46:01;25.20;56.60
33007;DHT22;19361;51.598;7.650;2022-07-21T00:51:02;25.20;56.80
33007;DHT22;19361;51.598;7.650;2022-07-21T00:56:03;25.20;56.80
33007;DHT22;19361;51.598;7.650;2022-07-21T01:01:04;25.20;57.60
33007;DHT22;19361;51.598;7.650;2022-07-21T01:06:05;25.10;57.20
33007;DHT22;19361;51.598;7.650;2022-07-21T01:11:06;25.10;57.20
33007;DHT22;19361;51.598;7.650;2022-07-21T01:16:08;25.00;57.50
33007;DHT22;19361;51.598;7.650;2022-07-21T01:31:50;24.90;58.70
33007;DHT22;19361;51.598;7.650;2022-07-21T01:36:51;24.90;57.60
33007;DHT22;19361;51.598;7.650;2022-07-21T01:41:52;24.80;58.70
33007;DHT22;19361;51.598;7.650;2022-07-21T01:46:53;24.80;57.70
33007;DHT22;19361;51.598;7.650;2022-07-21T01:51:54;24.80;58.00
33007;DHT22;19361;51.598;7.650;2022-07-21T01:56:54;24.70;58.10
33007;DHT22;19361;51.598;7.650;2022-07-21T02:01:55;24.60;58.00
33007;DHT22;19361;51.598;7.650;2022-07-21T02:06:56;24.60;58.20
33007;DHT22;19361;51.598;7.650;2022-07-21T02:11:56;24.60;58.40
33007;DHT22;19361;51.598;7.650;2022-07-21T02:16:57;24.50;58.50
33007;DHT22;19361;51.598;7.650;2022-07-21T02:21:58;24.40;58.40
33007;DHT22;19361;51.598;7.650;2022-07-21T02:26:59;24.40;58.60
33007;DHT22;19361;51.598;7.650;2022-07-21T02:31:59;24.30;59.30
33007;DHT22;19361;51.598;7.650;2022-07-21T02:43:16;24.30;60.50
33007;DHT22;19361;51.598;7.650;2022-07-21T02:48:16;24.20;59.20
33007;DHT22;19361;51.598;7.650;2022-07-21T02:53:19;24.20;59.40
33007;DHT22;19361;51.598;7.650;2022-07-21T02:58:25;24.20;59.50
33007;DHT22;19361;51.598;7.650;2022-07-21T03:03:34;24.10;60.20
33007;DHT22;19361;51.598;7.650;2022-07-21T03:08:36;24.10;60.30
33007;DHT22;19361;51.598;7.650;2022-07-21T03:13:37;24.00;59.50
33007;DHT22;19361;51.598;7.650;2022-07-21T03:18:38;23.90;59.10
33007;DHT22;19361;51.598;7.650;2022-07-21T03:23:39;23.80;59.10
33007;DHT22;19361;51.598;7.650;2022-07-21T03:28:41;23.70;59.30
33007;DHT22;19361;51.598;7.650;2022-07-21T03:33:42;23.70;59.70
33007;DHT22;19361;51.598;7.650;2022-07-21T03:38:43;23.60;59.70
33007;DHT22;19361;51.598;7.650;2022-07-21T03:43:43;23.60;60.10
33007;DHT22;19361;51.598;7.650;2022-07-21T03:48:44;23.50;60.00
33007;DHT22;19361;51.598;7.650;2022-07-21T03:53:45;23.50;60.70
33007;DHT22;19361;51.598;7.650;2022-07-21T03:58:46;23.40;60.30
33007;DHT22;19361;51.598;7.650;2022-07-21T04:03:46;23.30;60.30
33007;DHT22;19361;51.598;7.650;2022-07-21T04:08:47;23.30;60.40
33007;DHT22;19361;51.598;7.650;2022-07-21T04:13:48;23.20;60.40
33007;DHT22;19361;51.598;7.650;2022-07-21T04:18:48;23.20;60.80
33007;DHT22;19361;51.598;7.650;2022-07-21T04:23:49;23.20;61.00
33007;DHT22;19361;51.598;7.650;2022-07-21T04:28:50;23.20;61.00
33007;DHT22;19361;51.598;7.650;2022-07-21T04:33:50;23.20;61.10
33007;DHT22;19361;51.598;7.650;2022-07-21T04:38:51;23.20;61.00
33007;DHT22;19361;51.598;7.650;2022-07-21T04:43:52;23.20;61.20
33007;DHT22;19361;51.598;7.650;2022-07-21T04:48:52;23.30;61.10
33007;DHT22;19361;51.598;7.650;2022-07-21T04:53:53;23.20;61.30
33007;DHT22;19361;51.598;7.650;2022-07-21T04:58:54;23.20;61.40
33007;DHT22;19361;51.598;7.650;2022-07-21T05:03:54;23.30;61.60
33007;DHT22;19361;51.598;7.650;2022-07-21T05:08:55;23.30;61.60
33007;DHT22;19361;51.598;7.650;2022-07-21T05:13:56;23.40;61.90
33007;DHT22;19361;51.598;7.650;2022-07-21T05:18:58;23.40;61.80
33007;DHT22;19361;51.598;7.650;2022-07-21T05:23:58;23.40;61.90
33007;DHT22;19361;51.598;7.650;2022-07-21T05:28:59;23.50;62.30
33007;DHT22;19361;51.598;7.650;2022-07-21T05:34:00;23.50;62.40
33007;DHT22;19361;51.598;7.650;2022-07-21T05:39:00;23.80;63.30
33007;DHT22;19361;51.598;7.650;2022-07-21T05:44:01;24.20;63.30
33007;DHT22;19361;51.598;7.650;2022-07-21T05:49:02;24.60;63.20
33007;DHT22;19361;51.598;7.650;2022-07-21T05:54:03;25.10;62.40
33007;DHT22;19361;51.598;7.650;2022-07-21T05:59:04;25.40;61.60
33007;DHT22;19361;51.598;7.650;2022-07-21T06:04:05;25.50;60.30
33007;DHT22;19361;51.598;7.650;2022-07-21T06:09:06;25.40;59.60
33007;DHT22;19361;51.598;7.650;2022-07-21T06:14:06;25.20;59.60
33007;DHT22;19361;51.598;7.650;2022-07-21T06:19:07;25.00;60.10
33007;DHT22;19361;51.598;7.650;2022-07-21T06:24:08;25.00;60.50
33007;DHT22;19361;51.598;7.650;2022-07-21T06:29:09;25.00;60.40
33007;DHT22;19361;51.598;7.650;2022-07-21T06:34:10;25.10;60.60
33007;DHT22;19361;51.598;7.650;2022-07-21T06:39:10;25.10;60.40
33007;DHT22;19361;51.598;7.650;2022-07-21T06:44:14;25.10;60.00
33007;DHT22;19361;51.598;7.650;2022-07-21T06:49:15;25.10;60.50
33007;DHT22;19361;51.598;7.650;2022-07-21T06:54:15;25.20;60.70
33007;DHT22;19361;51.598;7.650;2022-07-21T06:59:16;25.20;60.70
33007;DHT22;19361;51.598;7.650;2022-07-21T07:04:17;25.40;60.40
33007;DHT22;19361;51.598;7.650;2022-07-21T07:09:17;25.50;60.90
33007;DHT22;19361;51.598;7.650;2022-07-21T07:14:20;25.70;60.00
33007;DHT22;19361;51.598;7.650;2022-07-21T07:19:22;25.80;59.60
33007;DHT22;19361;51.598;7.650;2022-07-21T07:24:22;25.90;59.60
33007;DHT22;19361;51.598;7.650;2022-07-21T07:29:23;26.00;59.60
33007;DHT22;19361;51.598;7.650;2022-07-21T07:34:24;26.10;59.40
33007;DHT22;19361;51.598;7.650;2022-07-21T07:39:25;26.20;59.20
33007;DHT22;19361;51.598;7.650;2022-07-21T07:44:25;26.20;59.00
33007;DHT22;19361;51.598;7.650;2022-07-21T07:49:26;26.20;58.40
33007;DHT22;19361;51.598;7.650;2022-07-21T07:54:27;26.20;58.30
33007;DHT22;19361;51.598;7.650;2022-07-21T07:59:27;26.20;58.10
33007;DHT22;19361;51.598;7.650;2022-07-21T08:04:28;26.20;58.10
33007;DHT22;19361;51.598;7.650;2022-07-21T08:09:29;26.20;57.90
33007;DHT22;19361;51.598;7.650;2022-07-21T08:14:30;26.10;57.40
33007;DHT22;19361;51.598;7.650;2022-07-21T08:19:31;26.00;57.20
33007;DHT22;19361;51.598;7.650;2022-07-21T08:24:32;25.80;57.20
33007;DHT22;19361;51.598;7.650;2022-07-21T08:29:33;25.80;57.70
33007;DHT22;19361;51.598;7.650;2022-07-21T08:34:34;25.80;57.60
33007;DHT22;19361;51.598;7.650;2022-07-21T08:39:34;25.80;57.40
33007;DHT22;19361;51.598;7.650;2022-07-21T08:44:35;25.80;57.50
33007;DHT22;19361;51.598;7.650;2022-07-21T08:49:36;25.90;57.90
33007;DHT22;19361;51.598;7.650;2022-07-21T08:54:37;25.90;57.30
33007;DHT22;19361;51.598;7.650;2022-07-21T08:59:38;26.00;57.30
33007;DHT22;19361;51.598;7.650;2022-07-21T09:04:38;26.00;57.00
33007;DHT22;19361;51.598;7.650;2022-07-21T09:09:40;26.10;56.80
33007;DHT22;19361;51.598;7.650;2022-07-21T09:14:41;26.20;57.00
33007;DHT22;19361;51.598;7.650;2022-07-21T09:19:44;26.40;56.30
33007;DHT22;19361;51.598;7.650;2022-07-21T09:24:51;26.60;56.10
33007;DHT22;19361;51.598;7.650;2022-07-21T09:29:57;26.70;56.00
33007;DHT22;19361;51.598;7.650;2022-07-21T09:35:06;26.90;56.10
33007;DHT22;19361;51.598;7.650;2022-07-21T09:40:13;27.10;55.80
33007;DHT22;19361;51.598;7.650;2022-07-21T09:45:16;27.30;54.70
33007;DHT22;19361;51.598;7.650;2022-07-21T09:50:18;27.30;54.50
33007;DHT22;19361;51.598;7.650;2022-07-21T09:55:19;27.30;54.30
33007;DHT22;19361;51.598;7.650;2022-07-21T10:00:20;27.40;53.90
33007;DHT22;19361;51.598;7.650;2022-07-21T10:05:21;27.50;54.00
33007;DHT22;19361;51.598;7.650;2022-07-21T10:10:22;27.60;53.80
33007;DHT22;19361;51.598;7.650;2022-07-21T10:15:23;27.70;52.90
33007;DHT22;19361;51.598;7.650;2022-07-21T10:20:28;27.70;52.60
33007;DHT22;19361;51.598;7.650;2022-07-21T10:25:30;27.70;51.90
33007;DHT22;19361;51.598;7.650;2022-07-21T10:30:42;27.70;52.60
33007;DHT22;19361;51.598;7.650;2022-07-21T10:35:49;27.80;51.90
33007;DHT22;19361;51.598;7.650;2022-07-21T10:40:51;28.00;52.20
33007;DHT22;19361;51.598;7.650;2022-07-21T10:45:54;28.10;51.60
33007;DHT22;19361;51.598;7.650;2022-07-21T10:50:58;28.20;51.20
33007;DHT22;19361;51.598;7.650;2022-07-21T10:55:59;28.20;51.00
33007;DHT22;19361;51.598;7.650;2022-07-21T11:01:05;28.10;51.00
33007;DHT22;19361;51.598;7.650;2022-07-21T11:11:18;28.00;52.10
33007;DHT22;19361;51.598;7.650;2022-07-21T11:16:22;28.10;50.80
33007;DHT22;19361;51.598;7.650;2022-07-21T11:21:22;28.10;51.30
33007;DHT22;19361;51.598;7.650;2022-07-21T11:26:25;28.10;51.00
33007;DHT22;19361;51.598;7.650;2022-07-21T11:31:26;28.20;51.20
33007;DHT22;19361;51.598;7.650;2022-07-21T11:36:29;28.10;51.00
33007;DHT22;19361;51.598;7.650;2022-07-21T11:41:32;28.20;50.70
33007;DHT22;19361;51.598;7.650;2022-07-21T11:46:48;28.20;50.40
33007;DHT22;19361;51.598;7.650;2022-07-21T11:52:00;28.10;50.20
33007;DHT22;19361;51.598;7.650;2022-07-21T11:57:05;28.00;50.10
33007;DHT22;19361;51.598;7.650;2022-07-21T12:02:19;27.90;50.00
33007;DHT22;19361;51.598;7.650;2022-07-21T12:07:36;27.80;51.30
33007;DHT22;19361;51.598;7.650;2022-07-21T12:12:47;27.60;51.50
33007;DHT22;19361;51.598;7.650;2022-07-21T12:17:54;27.40;51.40
33007;DHT22;19361;51.598;7.650;2022-07-21T12:23:02;27.20;51.80
33007;DHT22;19361;51.598;7.650;2022-07-21T12:28:07;27.10;52.00
33007;DHT22;19361;51.598;7.650;2022-07-21T12:33:12;27.00;52.30
33007;DHT22;19361;51.598;7.650;2022-07-21T12:38:21;27.10;52.50
33007;DHT22;19361;51.598;7.650;2022-07-21T12:43:22;27.10;52.60
33007;DHT22;19361;51.598;7.650;2022-07-21T12:48:31;27.10;52.70
33007;DHT22;19361;51.598;7.650;2022-07-21T12:53:34;27.00;52.70
33007;DHT22;19361;51.598;7.650;2022-07-21T12:58:38;27.00;53.10
33007;DHT22;19361;51.598;7.650;2022-07-21T13:03:39;26.90;53.40
33007;DHT22;19361;51.598;7.650;2022-07-21T13:08:41;26.80;54.30
33007;DHT22;19361;51.598;7.650;2022-07-21T13:13:42;26.80;54.50
33007;DHT22;19361;51.598;7.650;2022-07-21T13:18:43;26.70;54.30
33007;DHT22;19361;51.598;7.650;2022-07-21T13:23:43;26.60;55.00
33007;DHT22;19361;51.598;7.650;2022-07-21T13:28:44;26.60;55.10
33007;DHT22;19361;51.598;7.650;2022-07-21T13:33:45;26.50;55.20
33007;DHT22;19361;51.598;7.650;2022-07-21T13:38:45;26.40;55.60
33007;DHT22;19361;51.598;7.650;2022-07-21T13:43:46;26.30;55.90
33007;DHT22;19361;51.598;7.650;2022-07-21T13:48:47;26.20;56.70
33007;DHT22;19361;51.598;7.650;2022-07-21T13:53:50;26.10;57.00
33007;DHT22;19361;51.598;7.650;2022-07-21T13:58:51;25.90;57.80
33007;DHT22;19361;51.598;7.650;2022-07-21T14:03:52;26.00;58.10
33007;DHT22;19361;51.598;7.650;2022-07-21T14:08:53;25.90;58.30
33007;DHT22;19361;51.598;7.650;2022-07-21T14:13:54;25.90;58.50
33007;DHT22;19361;51.598;7.650;2022-07-21T14:18:56;25.80;58.40
33007;DHT22;19361;51.598;7.650;2022-07-21T14:23:57;25.80;59.10
33007;DHT22;19361;51.598;7.650;2022-07-21T14:29:16;25.80;59.10
33007;DHT22;19361;51.598;7.650;2022-07-21T14:34:17;25.80;59.00
33007;DHT22;19361;51.598;7.650;2022-07-21T14:39:18;25.80;58.70
33007;DHT22;19361;51.598;7.650;2022-07-21T14:44:19;25.70;58.80
33007;DHT22;19361;51.598;7.650;2022-07-21T14:49:20;25.60;58.90
33007;DHT22;19361;51.598;7.650;2022-07-21T14:54:20;25.50;58.50
33007;DHT22;19361;51.598;7.650;2022-07-21T14:59:21;25.30;58.60
33007;DHT22;19361;51.598;7.650;2022-07-21T15:04:22;25.10;58.60
33007;DHT22;19361;51.598;7.650;2022-07-21T15:09:23;25.00;58.60
33007;DHT22;19361;51.598;7.650;2022-07-21T15:14:24;24.80;58.30
33007;DHT22;19361;51.598;7.650;2022-07-21T15:19:24;24.80;58.50
33007;DHT22;19361;51.598;7.650;2022-07-21T15:24:25;24.70;58.80
33007;DHT22;19361;51.598;7.650;2022-07-21T15:29:26;24.60;58.80
33007;DHT22;19361;51.598;7.650;2022-07-21T15:34:27;24.60;59.30
33007;DHT22;19361;51.598;7.650;2022-07-21T15:39:27;24.60;59.40
33007;DHT22;19361;51.598;7.650;2022-07-21T15:44:28;24.70;59.60
33007;DHT22;19361;51.598;7.650;2022-07-21T15:49:29;24.80;59.30
33007;DHT22;19361;51.598;7.650;2022-07-21T15:54:30;24.80;58.80
33007;DHT22;19361;51.598;7.650;2022-07-21T15:59:31;24.70;58.50
33007;DHT22;19361;51.598;7.650;2022-07-21T16:04:35;24.60;58.50
33007;DHT22;19361;51.598;7.650;2022-07-21T16:09:37;24.50;58.60
33007;DHT22;19361;51.598;7.650;2022-07-21T16:14:39;24.40;59.00
33007;DHT22;19361;51.598;7.650;2022-07-21T16:19:40;24.30;59.30
33007;DHT22;19361;51.598;7.650;2022-07-21T16:24:41;24.20;59.60
33007;DHT22;19361;51.598;7.650;2022-07-21T16:29:42;24.20;60.00
33007;DHT22;19361;51.598;7.650;2022-07-21T16:34:42;24.10;60.00
33007;DHT22;19361;51.598;7.650;2022-07-21T16:39:44;24.10;60.10
33007;DHT22;19361;51.598;7.650;2022-07-21T16:44:46;24.00;60.40
33007;DHT22;19361;51.598;7.650;2022-07-21T16:49:47;24.00;60.70
33007;DHT22;19361;51.598;7.650;2022-07-21T16:54:47;23.90;61.00
33007;DHT22;19361;51.598;7.650;2022-07-21T16:59:48;23.90;60.80
33007;DHT22;19361;51.598;7.650;2022-07-21T17:04:49;23.90;61.00
33007;DHT22;19361;51.598;7.650;2022-07-21T17:09:50;23.90;61.00
33007;DHT22;19361;51.598;7.650;2022-07-21T17:14:51;23.80;61.40
33007;DHT22;19361;51.598;7.650;2022-07-21T17:19:52;23.80;61.20
33007;DHT22;19361;51.598;7.650;2022-07-21T17:24:52;23.70;61.30
33007;DHT22;19361;51.598;7.650;2022-07-21T17:29:54;23.70;61.60
33007;DHT22;19361;51.598;7.650;2022-07-21T17:34:54;23.60;61.70
33007;DHT22;19361;51.598;7.650;2022-07-21T17:39:55;23.50;61.90
33007;DHT22;19361;51.598;7.650;2022-07-21T17:44:56;23.40;61.70
33007;DHT22;19361;51.598;7.650;2022-07-21T17:49:56;23.40;62.10
33007;DHT22;19361;51.598;7.650;2022-07-21T17:54:57;23.40;62.30
33007;DHT22;19361;51.598;7.650;2022-07-21T17:59:58;23.30;62.60
33007;DHT22;19361;51.598;7.650;2022-07-21T18:04:59;23.30;63.00
33007;DHT22;19361;51.598;7.650;2022-07-21T18:10:01;23.30;63.00
33007;DHT22;19361;51.598;7.650;2022-07-21T18:15:02;23.30;62.80
33007;DHT22;19361;51.598;7.650;2022-07-21T18:20:04;23.30;62.90
33007;DHT22;19361;51.598;7.650;2022-07-21T18:25:06;23.30;63.00
33007;DHT22;19361;51.598;7.650;2022-07-21T18:30:07;23.20;63.00
33007;DHT22;19361;51.598;7.650;2022-07-21T18:35:10;23.10;63.20
33007;DHT22;19361;51.598;7.650;2022-07-21T18:40:11;23.10;63.30
33007;DHT22;19361;51.598;7.650;2022-07-21T18:45:12;23.10;63.50
33007;DHT22;19361;51.598;7.650;2022-07-21T18:50:14;23.00;63.80
33007;DHT22;19361;51.598;7.650;2022-07-21T18:55:15;23.00;64.00
33007;DHT22;19361;51.598;7.650;2022-07-21T19:00:16;22.90;64.10
33007;DHT22;19361;51.598;7.650;2022-07-21T19:05:17;22.90;64.00
33007;DHT22;19361;51.598;7.650;2022-07-21T19:10:19;22.80;64.20
33007;DHT22;19361;51.598;7.650;2022-07-21T19:15:20;22.80;64.20
33007;DHT22;19361;51.598;7.650;2022-07-21T19:20:21;22.80;64.20
33007;DHT22;19361;51.598;7.650;2022-07-21T19:25:21;22.70;64.40
33007;DHT22;19361;51.598;7.650;2022-07-21T19:30:22;22.70;64.50
33007;DHT22;19361;51.598;7.650;2022-07-21T19:35:24;22.70;64.60
33007;DHT22;19361;51.598;7.650;2022-07-21T19:40:29;22.60;64.50
33007;DHT22;19361;51.598;7.650;2022-07-21T19:45:30;22.60;64.50
33007;DHT22;19361;51.598;7.650;2022-07-21T19:50:32;22.60;64.80
33007;DHT22;19361;51.598;7.650;2022-07-21T19:55:33;22.60;64.90
33007;DHT22;19361;51.598;7.650;2022-07-21T20:00:34;22.50;65.00
33007;DHT22;19361;51.598;7.650;2022-07-21T20:05:36;22.50;65.00
33007;DHT22;19361;51.598;7.650;2022-07-21T20:10:37;22.50;65.00
33007;DHT22;19361;51.598;7.650;2022-07-21T20:15:37;22.50;65.10
33007;DHT22;19361;51.598;7.650;2022-07-21T20:20:38;22.40;65.20
33007;DHT22;19361;51.598;7.650;2022-07-21T20:25:40;22.40;65.50
33007;DHT22;19361;51.598;7.650;2022-07-21T20:30:40;22.40;65.80
33007;DHT22;19361;51.598;7.650;2022-07-21T20:35:41;22.40;65.80
33007;DHT22;19361;51.598;7.650;2022-07-21T20:40:42;22.30;65.70
33007;DHT22;19361;51.598;7.650;2022-07-21T20:45:43;22.30;65.90
33007;DHT22;19361;51.598;7.650;2022-07-21T20:50:44;22.30;66.00
33007;DHT22;19361;51.598;7.650;2022-07-21T20:55:45;22.30;66.30
33007;DHT22;19361;51.598;7.650;2022-07-21T21:00:45;22.30;66.40
33007;DHT22;19361;51.598;7.650;2022-07-21T21:05:46;22.20;66.50
33007;DHT22;19361;51.598;7.650;2022-07-21T21:10:47;22.20;66.70
33007;DHT22;19361;51.598;7.650;2022-07-21T21:15:48;22.20;66.80
33007;DHT22;19361;51.598;7.650;2022-07-21T21:20:49;22.10;66.70
33007;DHT22;19361;51.598;7.650;2022-07-21T21:25:50;22.20;66.90
33007;DHT22;19361;51.598;7.650;2022-07-21T21:30:51;22.10;66.90
33007;DHT22;19361;51.598;7.650;2022-07-21T21:35:52;22.10;66.90
33007;DHT22;19361;51.598;7.650;2022-07-21T21:40:53;22.10;66.80
33007;DHT22;19361;51.598;7.650;2022-07-21T21:45:53;22.10;67.00
33007;DHT22;19361;51.598;7.650;2022-07-21T21:50:54;22.00;66.90
33007;DHT22;19361;51.598;7.650;2022-07-21T21:55:55;22.00;66.90
33007;DHT22;19361;51.598;7.650;2022-07-21T22:00:56;22.00;67.00
33007;DHT22;19361;51.598;7.650;2022-07-21T22:05:56;21.90;67.00
33007;DHT22;19361;51.598;7.650;2022-07-21T22:10:57;21.90;67.20
33007;DHT22;19361;51.598;7.650;2022-07-21T22:15:58;21.80;67.10
33007;DHT22;19361;51.598;7.650;2022-07-21T22:20:59;21.80;67.20
33007;DHT22;19361;51.598;7.650;2022-07-21T22:25:59;21.80;67.10
33007;DHT22;19361;51.598;7.650;2022-07-21T22:31:00;21.80;67.10
33007;DHT22;19361;51.598;7.650;2022-07-21T22:36:01;21.80;67.10
33007;DHT22;19361;51.598;7.650;2022-07-21T22:41:02;21.80;67.30
33007;DHT22;19361;51.598;7.650;2022-07-21T22:46:04;21.70;67.30
33007;DHT22;19361;51.598;7.650;2022-07-21T22:51:05;21.70;67.10
33007;DHT22;19361;51.598;7.650;2022-07-21T22:56:05;21.70;66.90
33007;DHT22;19361;51.598;7.650;2022-07-21T23:01:07;21.70;66.90
33007;DHT22;19361;51.598;7.650;2022-07-21T23:06:08;21.60;66.70
33007;DHT22;19361;51.598;7.650;2022-07-21T23:11:08;21.60;66.80
33007;DHT22;19361;51.598;7.650;2022-07-21T23:16:09;21.50;66.70
33007;DHT22;19361;51.598;7.650;2022-07-21T23:21:10;21.50;66.80
33007;DHT22;19361;51.598;7.650;2022-07-21T23:26:11;21.50;66.80
33007;DHT22;19361;51.598;7.650;2022-07-21T23:31:12;21.50;66.90
33007;DHT22;19361;51.598;7.650;2022-07-21T23:36:12;21.50;67.00
33007;DHT22;19361;51.598;7.650;2022-07-21T23:41:13;21.50;66.70
33007;DHT22;19361;51.598;7.650;2022-07-21T23:46:14;21.40;66.60
33007;DHT22;19361;51.598;7.650;2022-07-21T23:51:15;21.40;66.60
33007;DHT22;19361;51.598;7.650;2022-07-21T23:56:15;21.40;66.60
